createdAt,value
2017-09-19T00:00:42.090Z,0
2017-09-19T00:01:43.505Z,0
2017-09-19T00:02:44.925Z,0
2017-09-19T00:03:46.339Z,0
2017-09-19T00:04:47.754Z,0
2017-09-19T00:05:49.171Z,0
2017-09-19T00:06:50.587Z,0
2017-09-19T00:07:52.019Z,0
2017-09-19T00:08:53.424Z,0
2017-09-19T00:09:54.841Z,0
2017-09-19T00:10:56.259Z,0
2017-09-19T00:11:57.681Z,0
2017-09-19T00:12:59.098Z,0
2017-09-19T00:14:00.517Z,0
2017-09-19T00:15:01.935Z,0
2017-09-19T00:16:03.350Z,0
2017-09-19T00:17:04.771Z,0
2017-09-19T00:18:06.186Z,0
2017-09-19T00:19:07.603Z,0
2017-09-19T00:20:09.019Z,0
2017-09-19T00:21:10.434Z,0
2017-09-19T00:22:11.852Z,0
2017-09-19T00:23:13.270Z,0
2017-09-19T00:24:14.687Z,0
2017-09-19T00:25:16.103Z,0
2017-09-19T00:26:17.524Z,0
2017-09-19T00:27:18.962Z,0
2017-09-19T00:28:20.376Z,0
2017-09-19T00:29:21.793Z,0
2017-09-19T00:30:23.209Z,0
2017-09-19T00:31:24.628Z,0
2017-09-19T00:32:26.044Z,0
2017-09-19T00:33:27.462Z,0
2017-09-19T00:34:28.922Z,0
2017-09-19T00:35:30.301Z,0
2017-09-19T00:36:31.722Z,0
2017-09-19T00:37:33.137Z,0
2017-09-19T00:38:34.553Z,0
2017-09-19T00:39:35.970Z,0
2017-09-19T00:40:37.389Z,0
2017-09-19T00:41:38.806Z,0
2017-09-19T00:42:40.224Z,0
2017-09-19T00:43:41.646Z,0
2017-09-19T00:44:43.064Z,0
2017-09-19T00:45:44.473Z,0
2017-09-19T00:46:45.899Z,0
2017-09-19T00:47:47.316Z,0
2017-09-19T00:48:48.732Z,0
2017-09-19T00:49:50.182Z,0
2017-09-19T00:50:51.567Z,0
2017-09-19T00:51:52.980Z,0
2017-09-19T00:52:54.398Z,0
2017-09-19T00:53:55.809Z,0
2017-09-19T00:54:57.234Z,0
2017-09-19T00:55:58.652Z,0
2017-09-19T00:57:00.067Z,0
2017-09-19T00:58:01.489Z,0
2017-09-19T00:59:02.921Z,0
2017-09-19T01:00:04.339Z,0
2017-09-19T01:01:05.756Z,0
2017-09-19T01:02:07.173Z,0
2017-09-19T01:03:08.591Z,0
2017-09-19T01:04:10.009Z,0
2017-09-19T01:05:11.426Z,0
2017-09-19T01:06:12.840Z,0
2017-09-19T01:07:14.255Z,0
2017-09-19T01:08:15.673Z,0
2017-09-19T01:09:17.090Z,0
2017-09-19T01:10:18.506Z,0
2017-09-19T01:11:19.935Z,0
2017-09-19T01:12:21.344Z,0
2017-09-19T01:13:22.762Z,0
2017-09-19T01:14:24.183Z,0
2017-09-19T01:15:25.601Z,0
2017-09-19T01:16:27.014Z,0
2017-09-19T01:17:28.431Z,0
2017-09-19T01:18:29.846Z,0
2017-09-19T01:19:31.266Z,0
2017-09-19T01:20:32.682Z,0
2017-09-19T01:21:34.100Z,0
2017-09-19T01:22:35.514Z,0
2017-09-19T01:23:36.932Z,0
2017-09-19T01:24:39.160Z,0
2017-09-19T01:25:40.579Z,0
2017-09-19T01:26:41.994Z,0
2017-09-19T01:27:43.409Z,0
2017-09-19T01:28:44.828Z,0
2017-09-19T01:29:46.244Z,0
2017-09-19T01:30:47.661Z,0
2017-09-19T01:31:49.083Z,0
2017-09-19T01:32:50.512Z,0
2017-09-19T01:33:51.920Z,0
2017-09-19T01:34:53.335Z,0
2017-09-19T01:35:54.750Z,0
2017-09-19T01:36:56.170Z,0
2017-09-19T01:37:57.591Z,0
2017-09-19T01:38:59.005Z,0
2017-09-19T01:40:00.419Z,0
2017-09-19T01:41:01.836Z,0
2017-09-19T01:42:03.250Z,0
2017-09-19T01:43:04.667Z,0
2017-09-19T01:44:06.084Z,0
2017-09-19T01:45:07.498Z,0
2017-09-19T01:46:08.914Z,0
2017-09-19T01:47:10.337Z,0
2017-09-19T01:48:11.753Z,0
2017-09-19T01:49:13.172Z,0
2017-09-19T01:50:14.590Z,0
2017-09-19T01:51:16.007Z,0
2017-09-19T01:52:17.425Z,0
2017-09-19T01:53:18.842Z,0
2017-09-19T01:54:20.258Z,0
2017-09-19T01:55:21.672Z,0
2017-09-19T01:56:23.091Z,0
2017-09-19T01:57:24.506Z,0
2017-09-19T01:58:25.929Z,0
2017-09-19T01:59:27.339Z,0
2017-09-19T02:00:28.762Z,0
2017-09-19T02:01:30.180Z,0
2017-09-19T02:02:31.594Z,0
2017-09-19T02:03:33.010Z,0
2017-09-19T02:04:34.426Z,0
2017-09-19T02:05:35.845Z,0
2017-09-19T02:06:37.259Z,0
2017-09-19T02:07:38.676Z,0
2017-09-19T02:08:40.094Z,0
2017-09-19T02:09:41.509Z,0
2017-09-19T02:10:42.925Z,0
2017-09-19T02:11:44.339Z,0
2017-09-19T02:12:45.757Z,0
2017-09-19T02:13:47.176Z,0
2017-09-19T02:14:48.598Z,0
2017-09-19T02:15:50.016Z,0
2017-09-19T02:16:51.429Z,0
2017-09-19T02:17:52.848Z,0
2017-09-19T02:18:54.262Z,0
2017-09-19T02:19:55.679Z,0
2017-09-19T02:20:57.096Z,0
2017-09-19T02:21:58.513Z,0
2017-09-19T02:22:59.929Z,0
2017-09-19T02:24:01.345Z,0
2017-09-19T02:25:02.768Z,0
2017-09-19T02:26:04.184Z,0
2017-09-19T02:27:05.603Z,0
2017-09-19T02:28:07.016Z,0
2017-09-19T02:29:08.437Z,0
2017-09-19T02:30:09.850Z,0
2017-09-19T02:31:11.264Z,0
2017-09-19T02:32:12.681Z,0
2017-09-19T02:33:14.100Z,0
2017-09-19T02:34:15.517Z,0
2017-09-19T02:35:16.935Z,0
2017-09-19T02:36:18.352Z,0
2017-09-19T02:37:19.771Z,0
2017-09-19T02:38:21.186Z,0
2017-09-19T02:39:22.607Z,0
2017-09-19T02:40:24.024Z,0
2017-09-19T02:41:25.440Z,0
2017-09-19T02:42:26.857Z,0
2017-09-19T02:43:28.276Z,0
2017-09-19T02:44:29.688Z,0
2017-09-19T02:45:31.123Z,0
2017-09-19T02:46:32.542Z,0
2017-09-19T02:47:33.960Z,0
2017-09-19T02:48:35.379Z,0
2017-09-19T02:49:36.797Z,0
2017-09-19T02:50:38.214Z,0
2017-09-19T02:51:39.631Z,0
2017-09-19T02:54:01.001Z,0
2017-09-19T02:55:02.417Z,0
2017-09-19T02:56:03.842Z,0
2017-09-19T02:57:05.249Z,0
2017-09-19T02:58:06.668Z,0
2017-09-19T02:59:08.084Z,0
2017-09-19T03:00:09.501Z,0
2017-09-19T03:01:10.919Z,0
2017-09-19T03:02:12.335Z,0
2017-09-19T03:03:13.756Z,0
2017-09-19T03:04:15.175Z,0
2017-09-19T03:05:16.594Z,0
2017-09-19T03:06:18.010Z,0
2017-09-19T03:07:19.430Z,0
2017-09-19T03:08:20.843Z,0
2017-09-19T03:09:22.268Z,0
2017-09-19T03:10:23.684Z,0
2017-09-19T03:11:25.099Z,0
2017-09-19T03:12:26.515Z,0
2017-09-19T03:13:27.930Z,0
2017-09-19T03:14:29.345Z,0
2017-09-19T03:15:30.759Z,0
2017-09-19T03:16:32.176Z,0
2017-09-19T03:17:33.593Z,0
2017-09-19T03:18:35.009Z,0
2017-09-19T03:19:36.424Z,0
2017-09-19T03:20:37.838Z,0
2017-09-19T03:21:39.255Z,0
2017-09-19T03:22:40.672Z,0
2017-09-19T03:23:42.086Z,0
2017-09-19T03:24:43.505Z,0
2017-09-19T03:25:44.923Z,0
2017-09-19T03:26:46.340Z,0
2017-09-19T03:27:47.755Z,0
2017-09-19T03:28:49.171Z,0
2017-09-19T03:29:50.590Z,0
2017-09-19T03:30:52.008Z,0
2017-09-19T03:31:53.425Z,0
2017-09-19T03:32:54.843Z,0
2017-09-19T03:33:56.259Z,0
2017-09-19T03:34:57.677Z,0
2017-09-19T03:35:59.092Z,0
2017-09-19T03:37:00.508Z,0
2017-09-19T03:38:01.923Z,0
2017-09-19T03:39:03.337Z,0
2017-09-19T03:40:04.753Z,0
2017-09-19T03:41:06.169Z,0
2017-09-19T03:42:07.582Z,0
2017-09-19T03:43:08.998Z,0
2017-09-19T03:44:10.415Z,0
2017-09-19T03:45:11.831Z,0
2017-09-19T03:46:13.244Z,0
2017-09-19T03:47:14.660Z,0
2017-09-19T03:48:16.075Z,0
2017-09-19T03:49:17.489Z,0
2017-09-19T03:50:18.905Z,0
2017-09-19T03:51:20.321Z,0
2017-09-19T03:52:21.733Z,0
2017-09-19T03:53:23.151Z,0
2017-09-19T03:54:24.568Z,0
2017-09-19T03:55:25.980Z,0
2017-09-19T03:56:27.397Z,0
2017-09-19T03:57:28.813Z,0
2017-09-19T03:58:30.227Z,0
2017-09-19T03:59:31.644Z,0
2017-09-19T04:00:33.057Z,0
2017-09-19T04:01:34.474Z,0
2017-09-19T04:02:35.889Z,0
2017-09-19T04:03:37.307Z,0
2017-09-19T04:04:38.725Z,0
2017-09-19T04:05:40.144Z,0
2017-09-19T04:06:41.565Z,0
2017-09-19T04:07:42.977Z,0
2017-09-19T04:08:44.392Z,0
2017-09-19T04:09:45.809Z,0
2017-09-19T04:10:47.222Z,0
2017-09-19T04:11:48.638Z,0
2017-09-19T04:12:50.052Z,0
2017-09-19T04:13:51.469Z,0
2017-09-19T04:14:52.883Z,0
2017-09-19T04:15:54.299Z,0
2017-09-19T04:16:55.719Z,0
2017-09-19T04:17:57.132Z,0
2017-09-19T04:18:58.552Z,0
2017-09-19T04:19:59.964Z,0
2017-09-19T04:21:01.383Z,0
2017-09-19T04:22:02.797Z,0
2017-09-19T04:23:04.215Z,0
2017-09-19T04:24:05.631Z,0
2017-09-19T04:25:07.044Z,0
2017-09-19T04:26:08.462Z,0
2017-09-19T04:27:09.878Z,0
2017-09-19T04:28:11.289Z,0
2017-09-19T04:29:12.705Z,0
2017-09-19T04:30:14.121Z,0
2017-09-19T04:31:15.537Z,0
2017-09-19T04:32:16.957Z,0
2017-09-19T04:33:18.366Z,0
2017-09-19T04:34:19.782Z,0
2017-09-19T04:35:21.199Z,0
2017-09-19T04:36:22.616Z,0
2017-09-19T04:37:24.032Z,0
2017-09-19T04:38:25.450Z,0
2017-09-19T04:39:26.867Z,0
2017-09-19T04:40:28.285Z,0
2017-09-19T04:41:29.704Z,0
2017-09-19T04:42:31.118Z,0
2017-09-19T04:43:32.533Z,0
2017-09-19T04:44:33.950Z,0
2017-09-19T04:45:35.364Z,0
2017-09-19T04:46:36.781Z,0
2017-09-19T04:47:38.196Z,0
2017-09-19T04:48:39.635Z,0
2017-09-19T04:49:41.049Z,0
2017-09-19T04:50:42.470Z,0
2017-09-19T04:51:43.894Z,0
2017-09-19T04:52:45.322Z,0
2017-09-19T04:53:46.741Z,0
2017-09-19T04:54:48.165Z,0
2017-09-19T04:55:49.574Z,0
2017-09-19T04:56:50.989Z,0
2017-09-19T04:57:52.405Z,0
2017-09-19T04:58:53.813Z,0
2017-09-19T04:59:55.236Z,0
2017-09-19T05:00:56.676Z,0
2017-09-19T05:01:58.092Z,0
2017-09-19T05:02:59.505Z,0
2017-09-19T05:04:00.921Z,0
2017-09-19T05:05:02.334Z,0
2017-09-19T05:06:03.752Z,0
2017-09-19T05:07:05.173Z,0
2017-09-19T05:08:06.592Z,0
2017-09-19T05:09:08.007Z,0
2017-09-19T05:10:09.423Z,0
2017-09-19T05:11:10.840Z,0
2017-09-19T05:12:12.255Z,0
2017-09-19T05:13:13.675Z,0
2017-09-19T05:14:15.091Z,0
2017-09-19T05:15:16.509Z,0
2017-09-19T05:16:17.926Z,0
2017-09-19T05:17:19.347Z,0
2017-09-19T05:18:20.766Z,0
2017-09-19T05:19:22.184Z,0
2017-09-19T05:20:23.599Z,0
2017-09-19T05:21:25.015Z,0
2017-09-19T05:22:26.431Z,0
2017-09-19T05:23:27.847Z,0
2017-09-19T05:24:29.263Z,0
2017-09-19T05:25:30.688Z,0
2017-09-19T05:26:32.096Z,0
2017-09-19T05:27:33.522Z,0
2017-09-19T05:28:34.938Z,0
2017-09-19T05:29:36.351Z,0
2017-09-19T05:30:37.766Z,0
2017-09-19T05:31:39.184Z,0
2017-09-19T05:32:40.602Z,0
2017-09-19T05:33:42.020Z,0
2017-09-19T05:34:43.436Z,0
2017-09-19T05:35:44.852Z,0
2017-09-19T05:36:46.299Z,4
2017-09-19T05:37:47.685Z,4
2017-09-19T05:38:49.102Z,4
2017-09-19T05:39:50.522Z,4
2017-09-19T05:40:51.937Z,4
2017-09-19T05:41:53.354Z,4
2017-09-19T05:42:54.774Z,4
2017-09-19T05:43:56.185Z,0
2017-09-19T05:44:57.601Z,0
2017-09-19T05:45:59.013Z,4
2017-09-19T05:47:00.432Z,4
2017-09-19T05:48:01.855Z,4
2017-09-19T05:49:03.269Z,4
2017-09-19T05:50:04.687Z,4
2017-09-19T05:51:06.108Z,4
2017-09-19T05:52:07.525Z,4
2017-09-19T05:53:08.943Z,4
2017-09-19T05:54:10.365Z,4
2017-09-19T05:55:11.784Z,8
2017-09-19T05:56:13.194Z,4
2017-09-19T05:57:14.608Z,4
2017-09-19T05:58:16.023Z,4
2017-09-19T05:59:17.442Z,4
2017-09-19T06:00:18.861Z,4
2017-09-19T06:01:20.271Z,8
2017-09-19T06:02:21.690Z,8
2017-09-19T06:03:23.103Z,8
2017-09-19T06:04:24.519Z,8
2017-09-19T06:05:25.937Z,4
2017-09-19T06:06:27.353Z,4
2017-09-19T06:07:28.775Z,4
2017-09-19T06:08:30.188Z,8
2017-09-19T06:09:31.605Z,4
2017-09-19T06:10:33.021Z,4
2017-09-19T06:11:34.463Z,4
2017-09-19T06:12:35.901Z,4
2017-09-19T06:13:37.354Z,8
2017-09-19T06:14:38.773Z,8
2017-09-19T06:15:40.184Z,12
2017-09-19T06:16:41.603Z,8
2017-09-19T06:17:43.015Z,8
2017-09-19T06:18:44.439Z,12
2017-09-19T06:19:45.856Z,12
2017-09-19T06:20:47.276Z,12
2017-09-19T06:21:48.692Z,16
2017-09-19T06:22:50.107Z,16
2017-09-19T06:23:51.524Z,16
2017-09-19T06:24:52.936Z,16
2017-09-19T06:25:54.357Z,16
2017-09-19T06:26:55.774Z,16
2017-09-19T06:27:57.192Z,16
2017-09-19T06:28:58.613Z,16
2017-09-19T06:30:00.038Z,20
2017-09-19T06:31:01.442Z,20
2017-09-19T06:32:02.858Z,20
2017-09-19T06:33:04.286Z,20
2017-09-19T06:34:05.710Z,20
2017-09-19T06:35:07.127Z,20
2017-09-19T06:36:08.553Z,20
2017-09-19T06:37:09.970Z,24
2017-09-19T06:38:11.387Z,24
2017-09-19T06:39:12.804Z,28
2017-09-19T06:40:14.221Z,32
2017-09-19T06:41:15.639Z,36
2017-09-19T06:42:17.060Z,36
2017-09-19T06:43:18.482Z,32
2017-09-19T06:44:19.890Z,36
2017-09-19T06:45:21.315Z,36
2017-09-19T06:46:22.756Z,32
2017-09-19T06:47:24.173Z,32
2017-09-19T06:48:25.590Z,32
2017-09-19T06:49:27.008Z,28
2017-09-19T06:50:28.424Z,28
2017-09-19T06:51:29.844Z,24
2017-09-19T06:52:31.263Z,24
2017-09-19T06:53:32.682Z,20
2017-09-19T06:54:34.099Z,16
2017-09-19T06:55:35.514Z,20
2017-09-19T06:56:36.932Z,16
2017-09-19T06:57:38.348Z,20
2017-09-19T06:58:39.765Z,20
2017-09-19T06:59:41.182Z,16
2017-09-19T07:00:42.599Z,16
2017-09-19T07:01:44.015Z,20
2017-09-19T07:02:45.437Z,24
2017-09-19T07:03:46.855Z,28
2017-09-19T07:04:48.273Z,28
2017-09-19T07:05:49.696Z,24
2017-09-19T07:06:51.115Z,20
2017-09-19T07:07:52.535Z,24
2017-09-19T07:08:53.952Z,24
2017-09-19T07:09:55.368Z,24
2017-09-19T07:10:56.785Z,16
2017-09-19T07:11:58.201Z,20
2017-09-19T07:12:59.616Z,20
2017-09-19T07:14:01.032Z,16
2017-09-19T07:15:02.452Z,12
2017-09-19T07:16:03.869Z,16
2017-09-19T07:17:05.288Z,16
2017-09-19T07:18:06.705Z,20
2017-09-19T07:19:08.123Z,20
2017-09-19T07:20:09.541Z,20
2017-09-19T07:21:10.958Z,20
2017-09-19T07:22:12.374Z,16
2017-09-19T07:23:13.789Z,16
2017-09-19T07:24:15.209Z,16
2017-09-19T07:25:16.625Z,12
2017-09-19T07:26:18.043Z,16
2017-09-19T07:27:19.460Z,16
2017-09-19T07:28:20.878Z,20
2017-09-19T07:29:22.294Z,24
2017-09-19T07:30:23.710Z,24
2017-09-19T07:31:25.127Z,24
2017-09-19T07:32:26.544Z,28
2017-09-19T07:33:27.970Z,28
2017-09-19T07:34:29.391Z,32
2017-09-19T07:35:30.810Z,32
2017-09-19T07:36:32.229Z,36
2017-09-19T07:37:33.653Z,40
2017-09-19T07:38:35.071Z,40
2017-09-19T07:39:36.491Z,40
2017-09-19T07:40:37.909Z,44
2017-09-19T07:41:39.329Z,40
2017-09-19T07:42:40.749Z,44
2017-09-19T07:43:42.169Z,48
2017-09-19T07:44:43.589Z,48
2017-09-19T07:45:45.006Z,52
2017-09-19T07:46:46.423Z,48
2017-09-19T07:47:47.839Z,52
2017-09-19T07:48:49.254Z,56
2017-09-19T07:49:50.672Z,64
2017-09-19T07:50:52.093Z,68
2017-09-19T07:51:53.509Z,72
2017-09-19T07:52:54.927Z,68
2017-09-19T07:53:56.347Z,60
2017-09-19T07:54:57.779Z,48
2017-09-19T07:55:59.197Z,48
2017-09-19T07:57:00.615Z,44
2017-09-19T07:58:02.043Z,48
2017-09-19T07:59:03.449Z,56
2017-09-19T08:00:04.870Z,60
2017-09-19T08:01:06.284Z,60
2017-09-19T08:02:07.703Z,64
2017-09-19T08:03:09.134Z,64
2017-09-19T08:04:10.545Z,72
2017-09-19T08:05:11.962Z,68
2017-09-19T08:06:13.378Z,64
2017-09-19T08:07:14.795Z,68
2017-09-19T08:08:16.211Z,68
2017-09-19T08:09:17.627Z,80
2017-09-19T08:10:19.045Z,80
2017-09-19T08:11:20.469Z,68
2017-09-19T08:12:21.885Z,60
2017-09-19T08:13:23.301Z,64
2017-09-19T08:14:24.715Z,68
2017-09-19T08:15:26.155Z,76
2017-09-19T08:16:27.571Z,76
2017-09-19T08:17:28.992Z,68
2017-09-19T08:18:30.408Z,60
2017-09-19T08:19:31.834Z,56
2017-09-19T08:20:33.252Z,52
2017-09-19T08:21:34.671Z,52
2017-09-19T08:22:36.086Z,52
2017-09-19T08:23:37.508Z,44
2017-09-19T08:24:38.926Z,44
2017-09-19T08:25:40.344Z,48
2017-09-19T08:26:41.759Z,48
2017-09-19T08:27:43.177Z,48
2017-09-19T08:28:44.631Z,56
2017-09-19T08:29:46.017Z,60
2017-09-19T08:30:47.432Z,76
2017-09-19T08:31:48.851Z,88
2017-09-19T08:32:50.266Z,88
2017-09-19T08:33:51.683Z,92
2017-09-19T08:34:53.099Z,92
2017-09-19T08:35:54.517Z,92
2017-09-19T08:36:55.934Z,84
2017-09-19T08:37:57.352Z,80
2017-09-19T08:38:58.774Z,76
2017-09-19T08:40:00.192Z,72
2017-09-19T08:41:01.607Z,60
2017-09-19T08:42:03.025Z,52
2017-09-19T08:43:04.441Z,48
2017-09-19T08:44:05.862Z,40
2017-09-19T08:45:07.281Z,32
2017-09-19T08:46:08.703Z,24
2017-09-19T08:47:10.121Z,24
2017-09-19T08:48:11.548Z,20
2017-09-19T08:49:12.965Z,20
2017-09-19T08:50:14.392Z,20
2017-09-19T08:51:15.818Z,24
2017-09-19T08:52:17.236Z,24
2017-09-19T08:53:18.654Z,24
2017-09-19T08:54:20.071Z,20
2017-09-19T08:55:21.489Z,20
2017-09-19T08:56:22.907Z,20
2017-09-19T08:57:24.327Z,20
2017-09-19T08:58:25.744Z,20
2017-09-19T08:59:27.166Z,20
2017-09-19T09:00:28.584Z,20
2017-09-19T09:01:30.004Z,24
2017-09-19T09:02:31.417Z,28
2017-09-19T09:03:32.834Z,32
2017-09-19T09:04:34.252Z,36
2017-09-19T09:05:35.723Z,40
2017-09-19T09:06:37.140Z,40
2017-09-19T09:07:38.560Z,36
2017-09-19T09:08:39.980Z,36
2017-09-19T09:09:41.394Z,36
2017-09-19T09:10:42.811Z,32
2017-09-19T09:11:44.230Z,36
2017-09-19T09:12:45.653Z,40
2017-09-19T09:13:47.066Z,48
2017-09-19T09:14:48.482Z,44
2017-09-19T09:15:49.897Z,40
2017-09-19T09:16:51.336Z,32
2017-09-19T09:17:52.752Z,28
2017-09-19T09:18:54.175Z,28
2017-09-19T09:19:55.586Z,28
2017-09-19T09:20:57.003Z,24
2017-09-19T09:21:58.420Z,28
2017-09-19T09:22:59.843Z,32
2017-09-19T09:24:01.255Z,32
2017-09-19T09:25:02.669Z,32
2017-09-19T09:26:04.089Z,32
2017-09-19T09:27:05.499Z,28
2017-09-19T09:28:06.930Z,28
2017-09-19T09:29:08.345Z,24
2017-09-19T09:30:09.766Z,24
2017-09-19T09:31:11.182Z,24
2017-09-19T09:32:12.600Z,24
2017-09-19T09:33:14.019Z,24
2017-09-19T09:34:15.435Z,24
2017-09-19T09:35:16.853Z,28
2017-09-19T09:36:18.269Z,32
2017-09-19T09:37:19.690Z,36
2017-09-19T09:38:21.123Z,48
2017-09-19T09:39:22.543Z,60
2017-09-19T09:40:23.962Z,68
2017-09-19T09:41:25.387Z,72
2017-09-19T09:42:26.804Z,76
2017-09-19T09:43:28.223Z,76
2017-09-19T09:44:29.642Z,76
2017-09-19T09:45:31.058Z,76
2017-09-19T09:46:32.474Z,72
2017-09-19T09:47:33.892Z,68
2017-09-19T09:48:35.318Z,64
2017-09-19T09:49:36.737Z,52
2017-09-19T09:50:38.154Z,44
2017-09-19T09:51:39.569Z,44
2017-09-19T09:52:40.986Z,44
2017-09-19T09:53:42.404Z,52
2017-09-19T09:54:43.820Z,52
2017-09-19T09:55:45.239Z,48
2017-09-19T09:56:46.655Z,44
2017-09-19T09:57:48.073Z,40
2017-09-19T09:58:49.493Z,40
2017-09-19T09:59:50.921Z,52
2017-09-19T10:00:52.345Z,76
2017-09-19T10:01:53.758Z,80
2017-09-19T10:02:55.175Z,80
2017-09-19T10:03:56.595Z,80
2017-09-19T10:04:58.009Z,80
2017-09-19T10:05:59.426Z,76
2017-09-19T10:07:00.844Z,76
2017-09-19T10:08:02.261Z,68
2017-09-19T10:09:03.681Z,60
2017-09-19T10:10:05.119Z,60
2017-09-19T10:11:06.548Z,60
2017-09-19T10:12:07.963Z,64
2017-09-19T10:13:09.385Z,72
2017-09-19T10:14:10.797Z,64
2017-09-19T10:15:12.216Z,64
2017-09-19T10:16:13.656Z,68
2017-09-19T10:17:15.074Z,88
2017-09-19T10:18:16.492Z,92
2017-09-19T10:19:17.910Z,96
2017-09-19T10:20:19.327Z,96
2017-09-19T10:21:20.747Z,92
2017-09-19T10:22:22.161Z,104
2017-09-19T10:23:23.582Z,108
2017-09-19T10:24:25.003Z,128
2017-09-19T10:25:26.421Z,128
2017-09-19T10:26:27.847Z,128
2017-09-19T10:27:29.264Z,124
2017-09-19T10:28:30.679Z,112
2017-09-19T10:29:32.096Z,104
2017-09-19T10:30:33.528Z,96
2017-09-19T10:31:34.949Z,100
2017-09-19T10:32:36.366Z,100
2017-09-19T10:33:37.790Z,100
2017-09-19T10:34:39.208Z,108
2017-09-19T10:35:40.625Z,104
2017-09-19T10:36:42.043Z,96
2017-09-19T10:37:43.462Z,84
2017-09-19T10:38:44.889Z,76
2017-09-19T10:39:46.297Z,68
2017-09-19T10:40:47.717Z,64
2017-09-19T10:41:49.133Z,60
2017-09-19T10:42:50.548Z,64
2017-09-19T10:43:51.966Z,60
2017-09-19T10:44:53.384Z,60
2017-09-19T10:45:54.805Z,60
2017-09-19T10:46:56.223Z,60
2017-09-19T10:47:57.641Z,60
2017-09-19T10:48:59.060Z,60
2017-09-19T10:50:00.475Z,64
2017-09-19T10:51:01.891Z,60
2017-09-19T10:52:03.308Z,52
2017-09-19T10:53:04.726Z,44
2017-09-19T10:54:06.154Z,40
2017-09-19T10:55:07.569Z,44
2017-09-19T10:56:08.988Z,44
2017-09-19T10:57:10.404Z,48
2017-09-19T10:58:11.821Z,44
2017-09-19T10:59:13.241Z,40
2017-09-19T11:00:14.665Z,40
2017-09-19T11:01:16.079Z,44
2017-09-19T11:02:17.496Z,44
2017-09-19T11:03:18.913Z,44
2017-09-19T11:04:20.330Z,44
2017-09-19T11:05:21.748Z,48
2017-09-19T11:06:23.163Z,52
2017-09-19T11:07:24.582Z,52
2017-09-19T11:08:26.002Z,56
2017-09-19T11:09:27.418Z,60
2017-09-19T11:10:28.837Z,56
2017-09-19T11:11:30.253Z,56
2017-09-19T11:12:31.670Z,52
2017-09-19T11:13:33.087Z,52
2017-09-19T11:14:34.506Z,52
2017-09-19T11:15:35.929Z,56
2017-09-19T11:16:37.342Z,60
2017-09-19T11:17:38.761Z,64
2017-09-19T11:18:40.179Z,64
2017-09-19T11:19:41.601Z,60
2017-09-19T11:20:43.025Z,64
2017-09-19T11:21:44.442Z,68
2017-09-19T11:22:45.861Z,76
2017-09-19T11:23:47.277Z,96
2017-09-19T11:24:48.696Z,112
2017-09-19T11:25:50.116Z,132
2017-09-19T11:26:51.536Z,140
2017-09-19T11:27:52.957Z,148
2017-09-19T11:28:54.372Z,152
2017-09-19T11:29:55.792Z,156
2017-09-19T11:30:57.237Z,168
2017-09-19T11:31:58.658Z,204
2017-09-19T11:33:00.073Z,180
2017-09-19T11:34:01.490Z,148
2017-09-19T11:35:02.912Z,144
2017-09-19T11:36:04.331Z,188
2017-09-19T11:37:05.754Z,152
2017-09-19T11:38:07.162Z,152
2017-09-19T11:39:08.583Z,156
2017-09-19T11:40:10.001Z,164
2017-09-19T11:41:11.420Z,160
2017-09-19T11:42:12.839Z,164
2017-09-19T11:43:14.295Z,160
2017-09-19T11:44:15.714Z,160
2017-09-19T11:45:17.133Z,156
2017-09-19T11:46:18.552Z,160
2017-09-19T11:47:19.970Z,152
2017-09-19T11:48:21.391Z,144
2017-09-19T11:49:22.813Z,140
2017-09-19T11:50:24.231Z,136
2017-09-19T11:51:25.647Z,136
2017-09-19T11:52:27.064Z,152
2017-09-19T11:53:28.486Z,176
2017-09-19T11:54:29.902Z,208
2017-09-19T11:55:31.324Z,228
2017-09-19T11:56:32.744Z,228
2017-09-19T11:57:34.164Z,232
2017-09-19T11:58:35.582Z,232
2017-09-19T11:59:37.023Z,224
2017-09-19T12:00:38.440Z,204
2017-09-19T12:01:39.862Z,196
2017-09-19T12:02:41.282Z,176
2017-09-19T12:03:42.701Z,160
2017-09-19T12:04:44.134Z,144
2017-09-19T12:05:45.541Z,136
2017-09-19T12:06:46.959Z,136
2017-09-19T12:07:48.378Z,136
2017-09-19T12:08:49.795Z,144
2017-09-19T12:09:51.217Z,152
2017-09-19T12:10:52.639Z,160
2017-09-19T12:11:54.060Z,184
2017-09-19T12:12:55.478Z,236
2017-09-19T12:13:56.897Z,196
2017-09-19T12:14:58.314Z,208
2017-09-19T12:15:59.733Z,228
2017-09-19T12:17:01.151Z,256
2017-09-19T12:18:02.571Z,316
2017-09-19T12:19:03.989Z,236
2017-09-19T12:20:05.409Z,212
2017-09-19T12:21:06.828Z,208
2017-09-19T12:22:08.248Z,200
2017-09-19T12:23:09.686Z,228
2017-09-19T12:24:11.110Z,184
2017-09-19T12:25:12.541Z,168
2017-09-19T12:26:13.964Z,176
2017-09-19T12:27:15.381Z,156
2017-09-19T12:28:16.806Z,132
2017-09-19T12:29:18.220Z,96
2017-09-19T12:30:19.637Z,92
2017-09-19T12:31:21.055Z,128
2017-09-19T12:32:22.472Z,140
2017-09-19T12:33:23.896Z,152
2017-09-19T12:34:25.314Z,160
2017-09-19T12:35:26.741Z,164
2017-09-19T12:36:28.156Z,168
2017-09-19T12:37:29.607Z,176
2017-09-19T12:38:31.027Z,180
2017-09-19T12:39:32.456Z,188
2017-09-19T12:40:33.884Z,196
2017-09-19T12:41:35.304Z,196
2017-09-19T12:42:36.723Z,196
2017-09-19T12:43:38.146Z,204
2017-09-19T12:44:39.569Z,200
2017-09-19T12:45:40.986Z,208
2017-09-19T12:46:42.406Z,232
2017-09-19T12:47:43.823Z,256
2017-09-19T12:48:45.250Z,264
2017-09-19T12:49:46.666Z,244
2017-09-19T12:50:48.087Z,244
2017-09-19T12:51:49.507Z,224
2017-09-19T12:52:50.925Z,220
2017-09-19T12:53:52.345Z,228
2017-09-19T12:54:53.765Z,216
2017-09-19T12:55:55.187Z,204
2017-09-19T12:56:56.604Z,188
2017-09-19T12:57:58.024Z,172
2017-09-19T12:58:59.443Z,172
2017-09-19T13:00:00.864Z,180
2017-09-19T13:01:02.284Z,200
2017-09-19T13:02:03.703Z,196
2017-09-19T13:03:05.121Z,200
2017-09-19T13:04:06.543Z,196
2017-09-19T13:05:07.960Z,188
2017-09-19T13:06:09.381Z,176
2017-09-19T13:07:10.802Z,184
2017-09-19T13:08:12.225Z,196
2017-09-19T13:09:13.642Z,188
2017-09-19T13:10:15.062Z,196
2017-09-19T13:11:16.483Z,192
2017-09-19T13:12:17.903Z,192
2017-09-19T13:13:19.324Z,200
2017-09-19T13:14:20.750Z,204
2017-09-19T13:15:22.161Z,216
2017-09-19T13:16:23.588Z,228
2017-09-19T13:17:25.008Z,240
2017-09-19T13:18:26.428Z,252
2017-09-19T13:19:27.849Z,252
2017-09-19T13:20:29.287Z,256
2017-09-19T13:21:30.704Z,244
2017-09-19T13:22:32.126Z,220
2017-09-19T13:23:33.548Z,264
2017-09-19T13:24:34.971Z,160
2017-09-19T13:25:36.418Z,140
2017-09-19T13:26:37.838Z,120
2017-09-19T13:27:39.294Z,120
2017-09-19T13:28:40.679Z,104
2017-09-19T13:29:42.107Z,92
2017-09-19T13:30:43.526Z,88
2017-09-19T13:31:44.957Z,84
2017-09-19T13:32:46.379Z,84
2017-09-19T13:33:47.801Z,92
2017-09-19T13:34:49.220Z,96
2017-09-19T13:35:50.657Z,96
2017-09-19T13:36:52.079Z,100
2017-09-19T13:37:53.501Z,108
2017-09-19T13:38:54.918Z,116
2017-09-19T13:39:56.340Z,116
2017-09-19T13:40:57.761Z,120
2017-09-19T13:41:59.180Z,124
2017-09-19T13:43:00.601Z,128
2017-09-19T13:44:02.030Z,132
2017-09-19T13:45:03.446Z,140
2017-09-19T13:46:04.866Z,148
2017-09-19T13:47:06.287Z,156
2017-09-19T13:48:07.707Z,164
2017-09-19T13:49:09.132Z,172
2017-09-19T13:50:10.552Z,196
2017-09-19T13:51:11.979Z,420
2017-09-19T13:52:13.394Z,464
2017-09-19T13:53:14.815Z,464
2017-09-19T13:54:16.239Z,452
2017-09-19T13:55:17.661Z,464
2017-09-19T13:56:19.091Z,456
2017-09-19T13:57:20.508Z,456
2017-09-19T13:58:21.930Z,460
2017-09-19T13:59:23.352Z,464
2017-09-19T14:00:24.773Z,464
2017-09-19T14:01:26.197Z,464
2017-09-19T14:02:27.616Z,472
2017-09-19T14:03:29.035Z,476
2017-09-19T14:04:30.460Z,460
2017-09-19T14:05:31.882Z,468
2017-09-19T14:06:33.301Z,468
2017-09-19T14:07:34.723Z,476
2017-09-19T14:08:36.143Z,420
2017-09-19T14:09:37.565Z,496
2017-09-19T14:10:38.987Z,516
2017-09-19T14:11:40.408Z,520
2017-09-19T14:12:41.826Z,500
2017-09-19T14:13:43.248Z,256
2017-09-19T14:14:44.672Z,264
2017-09-19T14:15:46.096Z,280
2017-09-19T14:16:47.521Z,548
2017-09-19T14:17:48.967Z,552
2017-09-19T14:18:50.397Z,564
2017-09-19T14:19:51.815Z,548
2017-09-19T14:20:53.235Z,368
2017-09-19T14:21:54.713Z,568
2017-09-19T14:22:56.136Z,584
2017-09-19T14:23:57.577Z,580
2017-09-19T14:24:59.001Z,560
2017-09-19T14:26:00.423Z,576
2017-09-19T14:27:01.847Z,592
2017-09-19T14:28:03.268Z,584
2017-09-19T14:29:04.692Z,572
2017-09-19T14:30:06.118Z,648
2017-09-19T14:31:07.540Z,596
2017-09-19T14:32:08.965Z,552
2017-09-19T14:33:10.388Z,520
2017-09-19T14:34:11.811Z,476
2017-09-19T14:35:13.233Z,400
2017-09-19T14:36:14.656Z,288
2017-09-19T14:37:16.077Z,144
2017-09-19T14:38:17.499Z,340
2017-09-19T14:39:18.924Z,276
2017-09-19T14:40:20.345Z,396
2017-09-19T14:41:21.775Z,244
2017-09-19T14:42:23.196Z,532
2017-09-19T14:43:24.615Z,308